KLAL/LAL METAR and TAF weather

Enter ICAO airport designator
Station Type Date Time Source
KLAL METAR 2021/03/06 00:48 UTC NOAA

KLAL 060048Z 00000KT 10SM SKC 17/06 A2998


Station Type Date Time Source
KLAL Decoded METAR 2021/03/06 00:48 UTC NOAA

Lakeland Regional, FL, United States (KLAL) 27-59N 082-01W
Mar 05, 2021 - 07:48 PM EST / 2021.03.06 0048 UTC
Wind: Calm:0
Visibility: 10 mile(s):0
Sky conditions: clear
Temperature: 62 F (17 C)
Dew Point: 42 F (6 C)
Relative Humidity: 48%
Pressure (altimeter): 29.98 in. Hg (1015 hPa)
ob: KLAL 060048Z 00000KT 10SM SKC 17/06 A2998
cycle: 1

Station Type Date Time Source
KLAL TAF 2021/03/05 18:39 UTC NOAA

TAF KLAL 051736Z 0518/0618 06005KT P6SM FEW250
FM052300 02004KT P6SM BKN250
FM060500 04005KT P6SM OVC150
FM061500 10008KT P6SM VCSH SCT030 BKN050 OVC100

Example: see airport list